createdAt,value
2022-11-26T00:01:44.519Z,202.10
2022-11-26T00:06:46.911Z,207.23
2022-11-26T00:11:49.268Z,191.43
2022-11-26T00:16:51.719Z,251.07
2022-11-26T00:21:54.076Z,200.67
2022-11-26T00:26:58.668Z,239.37
2022-11-26T00:32:01.063Z,242.70
2022-11-26T00:37:03.432Z,201.33
2022-11-26T00:42:05.836Z,218.43
2022-11-26T00:47:09.756Z,200.40
2022-11-26T00:52:34.178Z,239.37
2022-11-26T00:57:37.036Z,178.90
2022-11-26T01:02:39.430Z,199.80
2022-11-26T01:07:43.141Z,199.37
2022-11-26T01:12:46.357Z,182.30
2022-11-26T01:17:48.722Z,209.53
2022-11-26T01:22:52.459Z,175.93
2022-11-26T01:27:55.151Z,243.00
2022-11-26T01:32:57.691Z,220.00
2022-11-26T01:38:00.032Z,180.23
2022-11-26T01:43:11.235Z,203.90
2022-11-26T01:48:34.580Z,217.73
2022-11-26T01:53:47.716Z,203.87
2022-11-26T01:58:56.615Z,144.40
2022-11-26T02:04:09.507Z,168.17
2022-11-26T02:09:12.887Z,176.90
2022-11-26T02:14:15.207Z,187.57
2022-11-26T02:19:59.748Z,163.83
2022-11-26T02:25:27.749Z,188.23
2022-11-26T02:30:36.544Z,185.10
2022-11-26T02:35:38.837Z,184.23
2022-11-26T02:40:41.427Z,189.73
2022-11-26T02:45:47.939Z,192.63
2022-11-26T02:50:56.872Z,238.30
2022-11-26T02:56:09.498Z,153.27
2022-11-26T03:01:32.080Z,223.70
2022-11-26T03:06:35.168Z,220.23
2022-11-26T03:11:37.687Z,295.87
2022-11-26T03:16:40.170Z,153.50
2022-11-26T03:21:42.575Z,151.67
2022-11-26T03:26:44.980Z,164.40
2022-11-26T03:31:47.408Z,160.70
2022-11-26T03:36:50.260Z,168.63
2022-11-26T03:41:52.591Z,202.23
2022-11-26T03:46:54.913Z,196.03
2022-11-26T03:51:57.286Z,172.63
2022-11-26T03:56:59.635Z,193.50
2022-11-26T04:02:02.549Z,254.67
2022-11-26T04:07:05.272Z,187.33
2022-11-26T04:12:07.578Z,184.53
2022-11-26T04:17:09.914Z,161.60
2022-11-26T04:22:12.215Z,184.80
2022-11-26T04:27:14.515Z,211.87
2022-11-26T04:32:16.859Z,220.93
2022-11-26T04:37:19.335Z,205.97
2022-11-26T04:42:21.688Z,211.57
2022-11-26T04:47:23.980Z,175.20
2022-11-26T04:52:26.272Z,201.23
2022-11-26T04:57:28.604Z,226.13
2022-11-26T05:02:31.158Z,221.40
2022-11-26T05:07:33.799Z,206.70
2022-11-26T05:12:36.653Z,184.87
2022-11-26T05:17:39.064Z,171.03
2022-11-26T05:22:42.294Z,165.83
2022-11-26T05:27:44.631Z,164.13
2022-11-26T05:32:47.014Z,180.73
2022-11-26T05:37:49.335Z,144.53
2022-11-26T05:42:51.705Z,161.47
2022-11-26T05:47:54.012Z,161.13
2022-11-26T05:52:56.305Z,166.67
2022-11-26T05:57:58.673Z,149.90
2022-11-26T06:03:01.538Z,138.37
2022-11-26T06:08:04.160Z,139.33
2022-11-26T06:13:06.515Z,135.47
2022-11-26T06:18:08.843Z,142.93
2022-11-26T06:23:11.610Z,127.33
2022-11-26T06:28:13.973Z,130.67
2022-11-26T06:33:16.508Z,123.43
2022-11-26T06:38:18.835Z,121.40
2022-11-26T06:43:21.145Z,122.93
2022-11-26T06:48:25.525Z,120.23
2022-11-26T06:53:28.028Z,121.00
2022-11-26T06:58:30.626Z,106.53
2022-11-26T07:03:33.642Z,115.03
2022-11-26T07:08:35.954Z,93.30
2022-11-26T07:13:38.436Z,116.27
2022-11-26T07:18:41.176Z,137.17
2022-11-26T07:23:43.622Z,108.53
2022-11-26T07:28:49.153Z,97.70
2022-11-26T07:33:51.707Z,116.70
2022-11-26T07:38:58.609Z,132.17
2022-11-26T07:44:00.970Z,106.40
2022-11-26T07:49:03.490Z,112.30
2022-11-26T07:54:07.562Z,102.73
2022-11-26T07:59:11.333Z,121.63
2022-11-26T08:04:14.001Z,112.13
2022-11-26T08:09:16.343Z,106.33
2022-11-26T08:14:18.687Z,109.53
2022-11-26T08:19:21.032Z,118.70
2022-11-26T08:24:23.877Z,128.50
2022-11-26T08:29:26.241Z,146.60
2022-11-26T08:34:28.535Z,137.83
2022-11-26T08:39:30.825Z,151.27
2022-11-26T08:44:33.170Z,136.00
2022-11-26T08:49:35.648Z,150.17
2022-11-26T08:54:42.079Z,138.60
2022-11-26T08:59:46.986Z,142.87
2022-11-26T09:04:49.446Z,144.40
2022-11-26T09:09:51.751Z,155.23
2022-11-26T09:14:54.115Z,161.77
2022-11-26T09:19:57.204Z,368.07
2022-11-26T09:24:59.644Z,377.67
2022-11-26T09:30:02.623Z,176.10
2022-11-26T09:35:05.358Z,136.03
2022-11-26T09:40:10.974Z,171.73
2022-11-26T09:45:36.315Z,179.30
2022-11-26T09:50:40.425Z,283.30
2022-11-26T09:55:45.192Z,246.40
2022-11-26T10:00:50.724Z,170.90
2022-11-26T10:06:24.002Z,171.00
2022-11-26T10:11:45.616Z,159.03
2022-11-26T10:16:57.847Z,214.30
2022-11-26T10:22:05.862Z,153.33
2022-11-26T10:27:15.713Z,164.57
2022-11-26T10:32:26.683Z,127.87
2022-11-26T10:37:30.196Z,184.77
2022-11-26T10:42:42.409Z,127.50
2022-11-26T10:47:44.768Z,123.93
2022-11-26T10:52:47.864Z,86.07
2022-11-26T10:58:04.351Z,91.60
2022-11-26T11:03:38.203Z,93.80
2022-11-26T11:08:40.942Z,78.20
2022-11-26T11:13:45.168Z,88.50
2022-11-26T11:18:55.556Z,114.07
2022-11-26T11:24:20.968Z,92.80
2022-11-26T11:29:33.294Z,124.50
2022-11-26T11:34:39.092Z,173.00
2022-11-26T11:39:42.657Z,118.73
2022-11-26T11:44:47.364Z,110.10
2022-11-26T11:50:14.455Z,104.20
2022-11-26T11:55:39.712Z,145.80
2022-11-26T12:01:03.102Z,142.93
2022-11-26T12:06:26.139Z,130.27
2022-11-26T12:11:51.886Z,128.83
2022-11-26T12:17:00.269Z,99.40
2022-11-26T12:22:13.267Z,89.60
2022-11-26T12:27:51.397Z,99.97
2022-11-26T12:33:01.737Z,136.37
2022-11-26T12:38:15.750Z,101.23
2022-11-26T12:43:41.182Z,156.47
2022-11-26T12:49:03.925Z,129.50
2022-11-26T12:54:26.840Z,190.83
2022-11-26T12:59:49.253Z,267.00
2022-11-26T13:04:53.165Z,290.90
2022-11-26T13:10:29.496Z,142.70
2022-11-26T13:15:42.504Z,127.10
2022-11-26T13:21:08.044Z,151.67
2022-11-26T13:26:28.909Z,105.50
2022-11-26T13:31:49.339Z,117.13
2022-11-26T13:37:06.761Z,117.90
2022-11-26T13:42:36.530Z,101.60
2022-11-26T13:47:55.769Z,106.13
2022-11-26T13:53:11.376Z,82.20
2022-11-26T13:58:31.945Z,170.47
2022-11-26T14:03:48.906Z,132.97
2022-11-26T14:08:53.134Z,89.20
2022-11-26T14:14:26.610Z,82.77
2022-11-26T14:19:49.517Z,94.17
2022-11-26T14:24:51.962Z,105.03
2022-11-26T14:30:00.217Z,75.33
2022-11-26T14:35:02.779Z,120.13
2022-11-26T14:40:19.335Z,120.07
2022-11-26T14:45:24.201Z,90.47
2022-11-26T14:50:26.841Z,81.47
2022-11-26T14:55:31.459Z,88.00
2022-11-26T15:00:34.748Z,123.33
2022-11-26T15:05:42.038Z,114.87
2022-11-26T15:10:51.737Z,126.40
2022-11-26T15:15:59.712Z,92.00
2022-11-26T15:21:04.558Z,86.63
2022-11-26T15:26:07.133Z,107.33
2022-11-26T15:31:10.142Z,236.77
2022-11-26T15:36:17.380Z,159.23
2022-11-26T15:41:20.188Z,160.03
2022-11-26T15:46:23.607Z,124.93
2022-11-26T15:51:34.909Z,223.00
2022-11-26T15:56:39.238Z,170.17
2022-11-26T16:01:45.621Z,144.53
2022-11-26T16:06:48.053Z,140.57
2022-11-26T16:12:01.071Z,126.93
2022-11-26T16:17:09.727Z,142.23
2022-11-26T16:22:18.046Z,157.57
2022-11-26T16:27:23.059Z,183.17
2022-11-26T16:32:25.665Z,153.97
2022-11-26T16:37:31.504Z,99.53
2022-11-26T16:42:33.875Z,105.10
2022-11-26T16:47:39.563Z,103.03
2022-11-26T16:52:41.892Z,90.47
2022-11-26T16:57:48.211Z,110.40
2022-11-26T17:02:50.899Z,138.90
2022-11-26T17:07:56.228Z,134.53
2022-11-26T17:12:58.736Z,156.60
2022-11-26T17:18:03.811Z,150.60
2022-11-26T17:23:06.526Z,126.63
2022-11-26T17:28:14.691Z,157.17
2022-11-26T17:33:17.016Z,203.70
2022-11-26T17:38:21.374Z,146.87
2022-11-26T17:43:23.903Z,141.57
2022-11-26T17:48:26.860Z,173.43
2022-11-26T17:53:29.311Z,158.67
2022-11-26T17:58:32.018Z,150.37
2022-11-26T18:03:34.302Z,197.80
2022-11-26T18:08:36.641Z,170.57
2022-11-26T18:13:38.963Z,149.07
2022-11-26T18:18:41.274Z,114.20
2022-11-26T18:23:48.231Z,147.17
2022-11-26T18:28:50.587Z,154.00
2022-11-26T18:33:53.049Z,138.63
2022-11-26T18:38:56.399Z,129.73
2022-11-26T18:43:58.976Z,151.17
2022-11-26T18:49:01.688Z,148.07
2022-11-26T18:54:04.170Z,170.03
2022-11-26T18:59:06.502Z,114.80
2022-11-26T19:04:09.968Z,125.10
2022-11-26T19:09:17.975Z,120.77
2022-11-26T19:14:20.545Z,195.40
2022-11-26T19:19:22.893Z,138.00
2022-11-26T19:24:26.857Z,138.47
2022-11-26T19:29:29.201Z,169.10
2022-11-26T19:34:31.474Z,175.90
2022-11-26T19:39:33.812Z,169.97
2022-11-26T19:44:36.352Z,148.80
2022-11-26T19:49:38.999Z,135.23
2022-11-26T19:54:41.477Z,157.77
2022-11-26T19:59:43.735Z,147.67
2022-11-26T20:04:46.053Z,152.70
2022-11-26T20:09:52.258Z,189.07
2022-11-26T20:14:55.130Z,171.23
2022-11-26T20:19:57.413Z,145.47
2022-11-26T20:24:59.967Z,159.70
2022-11-26T20:30:02.275Z,159.37
2022-11-26T20:35:05.841Z,167.17
2022-11-26T20:40:09.015Z,134.83
2022-11-26T20:45:12.420Z,186.50
2022-11-26T20:50:15.271Z,160.67
2022-11-26T20:55:21.839Z,237.07
2022-11-26T21:00:27.587Z,152.40
2022-11-26T21:05:30.165Z,144.03
2022-11-26T21:10:32.616Z,149.57
2022-11-26T21:15:35.075Z,150.77
2022-11-26T21:20:42.171Z,175.60
2022-11-26T21:25:44.913Z,163.03
2022-11-26T21:30:50.121Z,149.30
2022-11-26T21:35:52.423Z,136.07
2022-11-26T21:40:54.746Z,174.07
2022-11-26T21:46:01.841Z,175.97
2022-11-26T21:51:08.996Z,169.87
2022-11-26T21:56:23.019Z,147.90
2022-11-26T22:01:34.119Z,124.47
2022-11-26T22:06:38.252Z,154.60
2022-11-26T22:11:42.613Z,170.87
2022-11-26T22:16:47.656Z,162.17
2022-11-26T22:21:52.997Z,159.70
2022-11-26T22:26:55.838Z,139.13
2022-11-26T22:31:58.379Z,188.63
2022-11-26T22:37:00.678Z,132.70
2022-11-26T22:42:03.179Z,146.73
2022-11-26T22:47:05.623Z,155.60
2022-11-26T22:52:07.935Z,177.27
2022-11-26T22:57:10.380Z,168.13
2022-11-26T23:02:12.840Z,187.57
2022-11-26T23:07:15.265Z,210.43
2022-11-26T23:12:17.606Z,168.50
2022-11-26T23:17:20.051Z,143.43
2022-11-26T23:22:22.398Z,236.90
2022-11-26T23:27:24.957Z,174.23
2022-11-26T23:32:32.220Z,202.27
2022-11-26T23:37:35.926Z,170.47
2022-11-26T23:42:38.224Z,154.13
2022-11-26T23:47:40.563Z,160.70
2022-11-26T23:52:42.870Z,138.93
2022-11-26T23:57:45.267Z,140.93
